KFAM/FAM METAR and TAF weather

Enter ICAO airport designator
Station Type Date Time Source
KFAM METAR 2019/12/09 22:14 UTC NOAA

KFAM 092214Z AUTO 30012G17KT 10SM SCT021 SCT032 OVC042 12/08 A2972 RMK AO2


Station Type Date Time Source
KFAM Decoded METAR 2019/12/09 22:14 UTC NOAA

Farmington Airport, MO, United States (KFAM) 37-46N 090-26W
Dec 09, 2019 - 05:14 PM EST / 2019.12.09 2214 UTC
Wind: from the WNW (300 degrees) at 14 MPH (12 KT) gusting to 20 MPH (17 KT):0
Visibility: 10 mile(s):0
Sky conditions: overcast
Temperature: 53 F (12 C)
Dew Point: 46 F (8 C)
Relative Humidity: 76%
Pressure (altimeter): 29.72 in. Hg (1006 hPa)
ob: KFAM 092214Z AUTO 30012G17KT 10SM SCT021 SCT032 OVC042 12/08 A2972 RMK AO2
cycle: 22

Station Type Date Time Source
KFAM TAF UTC NOAA

Error!

Example: see airport list